Time;durP1;ratioP1;P1;durP2;ratioP2;P2;SDS_P1;SDS_P2;PMS_P1;PMS_P2;Temp;Humidity;BMP_temperature;BMP_pressure;BME280_temperature;BME280_humidity;BME280_pressure;Samples;Min_cycle;Max_cycle;Signal;HPM_P1;HPM_P2
2023/03/08 00:00:26;;;;;;;;;;;;;;;;;;7371094;19;814;-67
2023/03/08 00:02:56;;;;;;;;;;;;;;;;;;7369073;19;1283;-66
2023/03/08 00:05:24;;;;;;;;;;;;;;;;;;7369107;19;786;-66
2023/03/08 00:07:53;;;;;;;;;;;;;;;;;;7370214;19;826;-66
2023/03/08 00:10:21;;;;;;;;;;;;;;;;;;7368119;19;1841;-66
2023/03/08 00:12:49;;;;;;;;;;;;;;;;;;7368556;19;1341;-66
2023/03/08 00:15:18;;;;;;;;;;;;;;;;;;7370132;19;902;-67
2023/03/08 00:17:46;;;;;;;;;;;;;;;;;;7369490;19;785;-66
2023/03/08 00:20:14;;;;;;;;;;;;;;;;;;7370933;19;775;-67
2023/03/08 00:22:42;;;;;;;;;;;;;;;;;;7368651;19;1255;-66
2023/03/08 00:25:10;;;;;;;;;;;;;;;;;;7370643;19;798;-67
2023/03/08 00:27:38;;;;;;;;;;;;;;;;;;7371791;19;807;-67
2023/03/08 00:30:07;;;;;;;;;;;;;;;;;;7367777;19;1835;-67
2023/03/08 00:32:35;;;;;;;;;;;;;;;;;;7368949;19;1263;-67
2023/03/08 00:35:03;;;;;;;;;;;;;;;;;;7369340;19;894;-67
2023/03/08 00:37:31;;;;;;;;;;;;;;;;;;7371128;19;794;-67
2023/03/08 00:40:00;;;;;;;;;;;;;;;;;;7369172;19;874;-67
2023/03/08 00:42:28;;;;;;;;;;;;;;;;;;7368310;19;1334;-67
2023/03/08 00:44:56;;;;;;;;;;;;;;;;;;7369134;19;795;-67
2023/03/08 00:47:24;;;;;;;;;;;;;;;;;;7370785;19;1928;-67
2023/03/08 00:49:52;;;;;;;;;;;;;;;;;;7366629;19;1841;-67
2023/03/08 00:52:22;;;;;;;;;;;;;;;;;;7368268;19;1582;-67
2023/03/08 00:54:50;;;;;;;;;;;;;;;;;;7368956;19;860;-67
2023/03/08 00:57:18;;;;;;;;;;;;;;;;;;7368041;19;858;-67
2023/03/08 00:59:47;;;;;;;;;;;;;;;;;;7366188;19;808;-67
2023/03/08 01:02:15;;;;;;;;;;;;;;;;;;7366912;19;1282;-67
2023/03/08 01:04:43;;;;;;;;;;;;;;;;;;7368620;19;763;-68
2023/03/08 01:07:11;;;;;;;;;;;;;;;;;;7367738;19;848;-67
2023/03/08 01:09:40;;;;;;;;;;;;;;;;;;7366606;19;1838;-67
2023/03/08 01:12:08;;;;;;;;;;;;;;;;;;7368721;19;1848;-67
2023/03/08 01:14:37;;;;;;;;;;;;;;;;;;7366610;19;801;-67
2023/03/08 01:17:05;;;;;;;;;;;;;;;;;;7367054;19;816;-67
2023/03/08 01:19:34;;;;;;;;;;;;;;;;;;7365909;19;818;-67
2023/03/08 01:22:02;;;;;;;;;;;;;;;;;;7366954;19;1345;-67
2023/03/08 01:24:30;;;;;;;;;;;;;;;;;;7368167;19;737;-67
2023/03/08 01:26:59;;;;;;;;;;;;;;;;;;7367742;19;832;-67
2023/03/08 01:29:28;;;;;;;;;;;;;;;;;;7365672;19;1878;-66
2023/03/08 01:31:59;;;;;;;;;;;;;;;;;;7365556;19;1381;-67
2023/03/08 01:34:27;;;;;;;;;;;;;;;;;;7367139;19;788;-67
2023/03/08 01:36:55;;;;;;;;;;;;;;;;;;7365800;19;783;-66
2023/03/08 01:39:24;;;;;;;;;;;;;;;;;;7366049;19;760;-67
2023/03/08 01:41:52;;;;;;;;;;;;;;;;;;7371038;19;1641;-67
2023/03/08 01:44:21;;;;;;;;;;;;;;;;;;7366481;19;869;-67
2023/03/08 01:46:49;;;;;;;;;;;;;;;;;;7366697;19;933;-67
2023/03/08 01:49:20;;;;;;;;;;;;;;;;;;7366889;19;1854;-67
2023/03/08 01:51:49;;;;;;;;;;;;;;;;;;7365773;19;1362;-67
2023/03/08 01:54:17;;;;;;;;;;;;;;;;;;7366640;19;839;-67
2023/03/08 01:56:46;;;;;;;;;;;;;;;;;;7366036;19;825;-67
2023/03/08 01:59:14;;;;;;;;;;;;;;;;;;7366120;19;827;-67
2023/03/08 02:01:42;;;;;;;;;;;;;;;;;;7366283;19;1423;-67
2023/03/08 02:04:11;;;;;;;;;;;;;;;;;;7365223;19;866;-67
2023/03/08 02:06:39;;;;;;;;;;;;;;;;;;7365328;19;897;-67
2023/03/08 02:09:07;;;;;;;;;;;;;;;;;;7365904;19;1838;-67
2023/03/08 02:11:35;;;;;;;;;;;;;;;;;;7363376;19;1278;-67
2023/03/08 02:14:03;;;;;;;;;;;;;;;;;;7365738;19;855;-67
2023/03/08 02:16:33;;;;;;;;;;;;;;;;;;7365897;19;873;-67
2023/03/08 02:19:01;;;;;;;;;;;;;;;;;;7365471;19;807;-67
2023/03/08 02:21:29;;;;;;;;;;;;;;;;;;7365034;19;1262;-67
2023/03/08 02:23:58;;;;;;;;;;;;;;;;;;7365604;19;1771;-67
2023/03/08 02:26:26;;;;;;;;;;;;;;;;;;7367589;19;864;-67
2023/03/08 02:28:54;;;;;;;;;;;;;;;;;;7365547;19;1849;-67
2023/03/08 02:31:30;;;;;;;;;;;;;;;;;;7397552;19;1789;-67
2023/03/08 02:33:58;;;;;;;;;;;;;;;;;;7399231;19;2060;-67
2023/03/08 02:36:28;;;;;;;;;;;;;;;;;;7396870;19;818;-67
2023/03/08 02:38:56;;;;;;;;;;;;;;;;;;7399583;19;1453;-67
2023/03/08 02:41:24;;;;;;;;;;;;;;;;;;7397496;19;1271;-67
2023/03/08 02:43:52;;;;;;;;;;;;;;;;;;7398981;19;799;-67
2023/03/08 02:46:21;;;;;;;;;;;;;;;;;;7399097;19;826;-67
2023/03/08 02:48:51;;;;;;;;;;;;;;;;;;7396850;19;896;-67
2023/03/08 02:51:19;;;;;;;;;;;;;;;;;;7396350;19;1843;-67
2023/03/08 02:53:47;;;;;;;;;;;;;;;;;;7398685;19;792;-66
2023/03/08 02:56:16;;;;;;;;;;;;;;;;;;7397643;19;808;-66
2023/03/08 02:58:44;;;;;;;;;;;;;;;;;;7397001;19;794;-66
2023/03/08 03:01:12;;;;;;;;;;;;;;;;;;7398591;19;810;-66
2023/03/08 03:03:40;;;;;;;;;;;;;;;;;;7395622;19;1356;-66
2023/03/08 03:06:08;;;;;;;;;;;;;;;;;;7398334;19;1887;-67
2023/03/08 03:08:37;;;;;;;;;;;;;;;;;;7397652;19;1760;-67
2023/03/08 03:11:06;;;;;;;;;;;;;;;;;;7395735;19;1865;-67
2023/03/08 03:13:34;;;;;;;;;;;;;;;;;;7394251;19;1286;-67
2023/03/08 03:16:02;;;;;;;;;;;;;;;;;;7397392;19;790;-67
2023/03/08 03:18:30;;;;;;;;;;;;;;;;;;7396576;19;867;-67
2023/03/08 03:20:59;;;;;;;;;;;;;;;;;;7398532;19;791;-67
2023/03/08 03:23:27;;;;;;;;;;;;;;;;;;7394746;19;1284;-67
2023/03/08 03:25:55;;;;;;;;;;;;;;;;;;7396888;19;822;-67
2023/03/08 03:28:23;;;;;;;;;;;;;;;;;;7396065;19;794;-67
2023/03/08 03:30:51;;;;;;;;;;;;;;;;;;7395196;19;1853;-67
2023/03/08 03:33:20;;;;;;;;;;;;;;;;;;7396072;19;1309;-67
2023/03/08 03:35:48;;;;;;;;;;;;;;;;;;7396147;19;1861;-67
2023/03/08 03:38:16;;;;;;;;;;;;;;;;;;7396734;19;754;-67
2023/03/08 03:40:46;;;;;;;;;;;;;;;;;;7393334;19;882;-67
2023/03/08 03:43:14;;;;;;;;;;;;;;;;;;7365453;19;1266;-66
2023/03/08 03:45:42;;;;;;;;;;;;;;;;;;7368061;19;793;-67
2023/03/08 03:48:10;;;;;;;;;;;;;;;;;;7367660;19;1505;-67
2023/03/08 03:50:39;;;;;;;;;;;;;;;;;;7370470;19;1856;-67
2023/03/08 03:53:12;;;;;;;;;;;;;;;;;;7369201;19;1357;-67
2023/03/08 03:55:40;;;;;;;;;;;;;;;;;;7367744;19;815;-68
2023/03/08 03:58:08;;;;;;;;;;;;;;;;;;7367850;19;779;-67
2023/03/08 04:00:37;;;;;;;;;;;;;;;;;;7367420;19;831;-68
2023/03/08 04:03:15;;;;;;;;;;;;;;;;;;7365469;19;1426;-67
2023/03/08 04:05:43;;;;;;;;;;;;;;;;;;7370927;19;1674;-67
2023/03/08 04:08:12;;;;;;;;;;;;;;;;;;7366027;19;882;-67
2023/03/08 04:10:43;;;;;;;;;;;;;;;;;;7365284;19;1853;-67
2023/03/08 04:13:11;;;;;;;;;;;;;;;;;;7364556;19;1393;-67
2023/03/08 04:15:40;;;;;;;;;;;;;;;;;;7367766;19;772;-67
2023/03/08 04:18:12;;;;;;;;;;;;;;;;;;7366063;19;840;-67
2023/03/08 04:20:43;;;;;;;;;;;;;;;;;;7366234;19;790;-67
2023/03/08 04:23:12;;;;;;;;;;;;;;;;;;7368009;19;1862;-67
2023/03/08 04:25:43;;;;;;;;;;;;;;;;;;7367152;19;810;-68
2023/03/08 04:28:13;;;;;;;;;;;;;;;;;;7365709;19;728;-67
2023/03/08 04:30:42;;;;;;;;;;;;;;;;;;7365052;19;1857;-68
2023/03/08 04:33:10;;;;;;;;;;;;;;;;;;7363742;19;1287;-67
2023/03/08 04:35:47;;;;;;;;;;;;;;;;;;7366852;19;803;-67
2023/03/08 04:38:16;;;;;;;;;;;;;;;;;;7366213;19;752;-67
2023/03/08 04:43:25;;;;;;;;;;;;;;;;;;7363563;19;1373;-66
2023/03/08 04:45:53;;;;;;;;;;;;;;;;;;7365529;19;811;-67
2023/03/08 04:48:21;;;;;;;;;;;;;;;;;;7368880;19;1567;-67
2023/03/08 04:50:49;;;;;;;;;;;;;;;;;;7366716;19;1841;-67
2023/03/08 04:53:18;;;;;;;;;;;;;;;;;;7361277;19;1302;-66
2023/03/08 04:55:46;;;;;;;;;;;;;;;;;;7368958;19;1575;-66
2023/03/08 04:58:14;;;;;;;;;;;;;;;;;;7365507;19;858;-66
2023/03/08 05:00:42;;;;;;;;;;;;;;;;;;7365030;19;849;-66
2023/03/08 05:03:12;;;;;;;;;;;;;;;;;;7367573;19;1991;-66
2023/03/08 05:05:40;;;;;;;;;;;;;;;;;;7366586;19;1560;-67
2023/03/08 05:08:08;;;;;;;;;;;;;;;;;;7369489;19;1307;-67
2023/03/08 05:10:38;;;;;;;;;;;;;;;;;;7367016;19;1882;-67
2023/03/08 05:13:06;;;;;;;;;;;;;;;;;;7364979;19;1274;-67
2023/03/08 05:15:34;;;;;;;;;;;;;;;;;;7365254;19;778;-67
2023/03/08 05:18:03;;;;;;;;;;;;;;;;;;7363895;19;831;-66
2023/03/08 05:20:31;;;;;;;;;;;;;;;;;;7367020;19;1743;-67
2023/03/08 05:23:00;;;;;;;;;;;;;;;;;;7363110;19;1290;-66
2023/03/08 05:25:37;;;;;;;;;;;;;;;;;;7365853;19;829;-67
2023/03/08 05:28:05;;;;;;;;;;;;;;;;;;7364816;19;854;-67
2023/03/08 05:30:33;;;;;;;;;;;;;;;;;;7363475;19;1861;-66
2023/03/08 05:33:02;;;;;;;;;;;;;;;;;;7362839;19;1429;-67
2023/03/08 05:35:30;;;;;;;;;;;;;;;;;;7365003;19;861;-67
2023/03/08 05:37:59;;;;;;;;;;;;;;;;;;7365049;19;791;-68
2023/03/08 05:40:28;;;;;;;;;;;;;;;;;;7366038;19;917;-68
2023/03/08 05:42:57;;;;;;;;;;;;;;;;;;7361917;19;1301;-67
2023/03/08 05:45:27;;;;;;;;;;;;;;;;;;7363954;19;873;-66
2023/03/08 05:47:55;;;;;;;;;;;;;;;;;;7363660;19;1842;-67
2023/03/08 05:50:24;;;;;;;;;;;;;;;;;;7366328;19;1908;-67
2023/03/08 05:52:53;;;;;;;;;;;;;;;;;;7361558;19;1282;-68
2023/03/08 05:55:26;;;;;;;;;;;;;;;;;;7365397;19;777;-68
2023/03/08 05:57:54;;;;;;;;;;;;;;;;;;7363408;19;873;-68
2023/03/08 06:00:22;;;;;;;;;;;;;;;;;;7364059;19;832;-67
2023/03/08 06:02:58;;;;;;;;;;;;;;;;;;7361443;19;1373;-67
2023/03/08 06:05:26;;;;;;;;;;;;;;;;;;7367035;19;1865;-68
2023/03/08 06:07:56;;;;;;;;;;;;;;;;;;7364602;19;729;-67
2023/03/08 06:10:25;;;;;;;;;;;;;;;;;;7363454;19;1846;-67
2023/03/08 06:12:53;;;;;;;;;;;;;;;;;;7363654;19;1774;-67
2023/03/08 06:15:25;;;;;;;;;;;;;;;;;;7364541;19;725;-67
2023/03/08 06:17:53;;;;;;;;;;;;;;;;;;7363397;19;1842;-67
2023/03/08 06:20:23;;;;;;;;;;;;;;;;;;7363618;19;766;-67
2023/03/08 06:22:52;;;;;;;;;;;;;;;;;;7361106;19;1298;-67
2023/03/08 06:25:21;;;;;;;;;;;;;;;;;;7363860;19;787;-66
2023/03/08 06:27:49;;;;;;;;;;;;;;;;;;7364026;19;851;-67
2023/03/08 06:30:43;;;;;;;;;;;;;;;;;;7363224;19;1814;-68
2023/03/08 06:33:11;;;;;;;;;;;;;;;;;;7360395;19;1290;-67
2023/03/08 06:35:40;;;;;;;;;;;;;;;;;;7363321;19;773;-67
2023/03/08 06:38:08;;;;;;;;;;;;;;;;;;7362346;19;837;-67
2023/03/08 06:40:37;;;;;;;;;;;;;;;;;;7363895;19;842;-68
2023/03/08 06:43:05;;;;;;;;;;;;;;;;;;7360266;19;1337;-67
2023/03/08 06:45:35;;;;;;;;;;;;;;;;;;7362803;19;792;-66
2023/03/08 06:48:03;;;;;;;;;;;;;;;;;;7366698;19;1862;-67
2023/03/08 06:50:31;;;;;;;;;;;;;;;;;;7362139;19;1843;-67
2023/03/08 06:53:00;;;;;;;;;;;;;;;;;;7363424;19;1553;-67
2023/03/08 06:55:41;;;;;;;;;;;;;;;;;;7361044;19;773;-67
2023/03/08 06:58:09;;;;;;;;;;;;;;;;;;7361280;19;860;-68
2023/03/08 07:00:38;;;;;;;;;;;;;;;;;;7363889;19;1896;-67
2023/03/08 07:03:06;;;;;;;;;;;;;;;;;;7363431;19;1652;-68
2023/03/08 07:05:34;;;;;;;;;;;;;;;;;;7363122;19;798;-68
2023/03/08 07:08:02;;;;;;;;;;;;;;;;;;7363264;19;1887;-68
2023/03/08 07:10:30;;;;;;;;;;;;;;;;;;7365742;19;1849;-66
2023/03/08 07:12:59;;;;;;;;;;;;;;;;;;7360068;19;1293;-67
2023/03/08 07:15:27;;;;;;;;;;;;;;;;;;7362637;19;869;-67
2023/03/08 07:17:56;;;;;;;;;;;;;;;;;;7367051;19;974;-68
2023/03/08 07:20:24;;;;;;;;;;;;;;;;;;7369297;19;929;-68
2023/03/08 07:22:52;;;;;;;;;;;;;;;;;;7367415;19;1250;-68
2023/03/08 07:25:20;;;;;;;;;;;;;;;;;;7369269;19;880;-67
2023/03/08 07:27:48;;;;;;;;;;;;;;;;;;7367097;19;766;-68
2023/03/08 07:30:16;;;;;;;;;;;;;;;;;;7371911;19;1124;-68
2023/03/08 07:32:45;;;;;;;;;;;;;;;;;;7365397;19;1835;-67
2023/03/08 07:35:13;;;;;;;;;;;;;;;;;;7372567;19;1783;-68
2023/03/08 07:37:41;;;;;;;;;;;;;;;;;;7367085;19;864;-65
2023/03/08 07:40:09;;;;;;;;;;;;;;;;;;7368989;19;791;-67
2023/03/08 07:42:37;;;;;;;;;;;;;;;;;;7366024;19;1401;-66
2023/03/08 07:45:17;;;;;;;;;;;;;;;;;;7371545;19;1933;-65
2023/03/08 07:47:46;;;;;;;;;;;;;;;;;;7368268;19;839;-64
2023/03/08 07:50:14;;;;;;;;;;;;;;;;;;7368802;19;825;-65
2023/03/08 07:52:42;;;;;;;;;;;;;;;;;;7365686;19;1851;-66
2023/03/08 07:55:10;;;;;;;;;;;;;;;;;;7371642;19;1322;-65
2023/03/08 07:57:38;;;;;;;;;;;;;;;;;;7366751;19;810;-66
2023/03/08 08:00:08;;;;;;;;;;;;;;;;;;7368817;19;871;-66
2023/03/08 08:02:43;;;;;;;;;;;;;;;;;;7370066;19;1813;-68
2023/03/08 08:05:11;;;;;;;;;;;;;;;;;;7373880;19;1661;-66
2023/03/08 08:07:39;;;;;;;;;;;;;;;;;;7368860;19;1834;-69
2023/03/08 08:10:07;;;;;;;;;;;;;;;;;;7369485;19;762;-67
2023/03/08 08:12:35;;;;;;;;;;;;;;;;;;7367665;19;1953;-65
2023/03/08 08:15:03;;;;;;;;;;;;;;;;;;7372946;19;1706;-68
2023/03/08 08:17:31;;;;;;;;;;;;;;;;;;7370222;19;1564;-66
2023/03/08 08:20:00;;;;;;;;;;;;;;;;;;7371211;19;1544;-66
2023/03/08 08:22:28;;;;;;;;;;;;;;;;;;7366046;19;1274;-68
2023/03/08 08:24:56;;;;;;;;;;;;;;;;;;7367621;19;829;-67
2023/03/08 08:27:24;;;;;;;;;;;;;;;;;;7368094;19;853;-68
2023/03/08 08:29:52;;;;;;;;;;;;;;;;;;7370844;19;1830;-68
2023/03/08 08:32:20;;;;;;;;;;;;;;;;;;7365757;19;1853;-67
2023/03/08 08:34:49;;;;;;;;;;;;;;;;;;7367186;19;825;-67
2023/03/08 08:37:17;;;;;;;;;;;;;;;;;;7369148;19;1837;-66
2023/03/08 08:39:45;;;;;;;;;;;;;;;;;;7368633;19;1645;-66
2023/03/08 08:42:13;;;;;;;;;;;;;;;;;;7365864;19;1274;-67
2023/03/08 08:44:41;;;;;;;;;;;;;;;;;;7369829;19;1844;-67
2023/03/08 08:47:09;;;;;;;;;;;;;;;;;;7366701;19;770;-66
2023/03/08 08:49:38;;;;;;;;;;;;;;;;;;7366859;19;812;-67
2023/03/08 08:52:06;;;;;;;;;;;;;;;;;;7366287;19;1900;-66
2023/03/08 08:54:38;;;;;;;;;;;;;;;;;;7370399;19;2144;-67
2023/03/08 08:57:06;;;;;;;;;;;;;;;;;;7370463;19;1884;-67
2023/03/08 08:59:34;;;;;;;;;;;;;;;;;;7365478;19;1839;-67
2023/03/08 09:02:03;;;;;;;;;;;;;;;;;;7365329;19;1263;-67
2023/03/08 09:04:31;;;;;;;;;;;;;;;;;;7367190;19;788;-67
2023/03/08 09:06:59;;;;;;;;;;;;;;;;;;7367239;19;768;-68
2023/03/08 09:09:28;;;;;;;;;;;;;;;;;;7365199;19;858;-69
2023/03/08 09:11:56;;;;;;;;;;;;;;;;;;7365391;19;1838;-68
2023/03/08 09:14:24;;;;;;;;;;;;;;;;;;7365594;19;797;-68
2023/03/08 09:16:53;;;;;;;;;;;;;;;;;;7365332;19;869;-69
2023/03/08 09:19:21;;;;;;;;;;;;;;;;;;7365652;19;885;-67
2023/03/08 09:21:49;;;;;;;;;;;;;;;;;;7363918;19;1314;-67
2023/03/08 09:24:18;;;;;;;;;;;;;;;;;;7367664;19;1871;-67
2023/03/08 09:26:46;;;;;;;;;;;;;;;;;;7364947;19;914;-67
2023/03/08 09:29:14;;;;;;;;;;;;;;;;;;7369159;19;1693;-68
2023/03/08 09:31:44;;;;;;;;;;;;;;;;;;7365298;19;1907;-66
2023/03/08 09:34:13;;;;;;;;;;;;;;;;;;7365558;19;875;-68
2023/03/08 09:36:41;;;;;;;;;;;;;;;;;;7366100;19;862;-66
2023/03/08 09:39:10;;;;;;;;;;;;;;;;;;7363355;19;856;-67
2023/03/08 09:41:38;;;;;;;;;;;;;;;;;;7364955;19;1278;-68
2023/03/08 09:44:06;;;;;;;;;;;;;;;;;;7365644;19;817;-66
2023/03/08 09:46:34;;;;;;;;;;;;;;;;;;7364896;19;790;-69
2023/03/08 09:49:02;;;;;;;;;;;;;;;;;;7363161;19;822;-68
2023/03/08 09:51:30;;;;;;;;;;;;;;;;;;7366002;19;1845;-67
2023/03/08 09:53:59;;;;;;;;;;;;;;;;;;7364986;19;814;-68
2023/03/08 09:56:28;;;;;;;;;;;;;;;;;;7365348;19;862;-67
2023/03/08 09:58:56;;;;;;;;;;;;;;;;;;7364926;19;829;-68
2023/03/08 10:01:24;;;;;;;;;;;;;;;;;;7368131;19;1861;-69
2023/03/08 10:03:52;;;;;;;;;;;;;;;;;;7364515;19;810;-68
2023/03/08 10:06:21;;;;;;;;;;;;;;;;;;7364972;19;853;-67
2023/03/08 10:08:49;;;;;;;;;;;;;;;;;;7363908;19;873;-69
2023/03/08 10:11:17;;;;;;;;;;;;;;;;;;7365248;19;762;-67
2023/03/08 10:13:45;;;;;;;;;;;;;;;;;;7365258;19;862;-68
2023/03/08 10:16:13;;;;;;;;;;;;;;;;;;7365634;19;856;-69
2023/03/08 10:18:41;;;;;;;;;;;;;;;;;;7363044;19;795;-67
2023/03/08 10:21:09;;;;;;;;;;;;;;;;;;7364840;19;810;-68
2023/03/08 10:23:40;;;;;;;;;;;;;;;;;;7361631;19;1797;-67
2023/03/08 10:26:08;;;;;;;;;;;;;;;;;;7364496;19;753;-67
2023/03/08 10:28:36;;;;;;;;;;;;;;;;;;7365803;19;1922;-68
2023/03/08 10:31:05;;;;;;;;;;;;;;;;;;7360277;19;1517;-68
2023/03/08 10:33:33;;;;;;;;;;;;;;;;;;7362724;19;1861;-68
2023/03/08 10:36:02;;;;;;;;;;;;;;;;;;7364303;19;818;-69
2023/03/08 10:38:30;;;;;;;;;;;;;;;;;;7361870;19;809;-68
2023/03/08 10:40:58;;;;;;;;;;;;;;;;;;7363677;19;796;-68
2023/03/08 10:43:27;;;;;;;;;;;;;;;;;;7362415;19;1359;-69
2023/03/08 10:45:55;;;;;;;;;;;;;;;;;;7366398;19;854;-69
2023/03/08 10:48:23;;;;;;;;;;;;;;;;;;7362792;19;794;-68
2023/03/08 10:50:51;;;;;;;;;;;;;;;;;;7363759;19;720;-69
2023/03/08 10:53:21;;;;;;;;;;;;;;;;;;7372801;19;1859;-67
2023/03/08 10:55:49;;;;;;;;;;;;;;;;;;7369374;19;802;-68
2023/03/08 10:58:17;;;;;;;;;;;;;;;;;;7368534;19;889;-69
2023/03/08 11:00:46;;;;;;;;;;;;;;;;;;7369308;19;833;-68
2023/03/08 11:03:14;;;;;;;;;;;;;;;;;;7367924;19;1512;-68
2023/03/08 11:05:42;;;;;;;;;;;;;;;;;;7368820;19;1301;-69
2023/03/08 11:08:10;;;;;;;;;;;;;;;;;;7372503;19;1679;-70
2023/03/08 11:10:38;;;;;;;;;;;;;;;;;;7370257;19;800;-67
2023/03/08 11:13:06;;;;;;;;;;;;;;;;;;7363428;19;1854;-68
2023/03/08 11:15:35;;;;;;;;;;;;;;;;;;7370564;19;1980;-68
2023/03/08 11:18:03;;;;;;;;;;;;;;;;;;7368316;19;838;-67
2023/03/08 11:20:31;;;;;;;;;;;;;;;;;;7370024;19;1934;-68
2023/03/08 11:22:59;;;;;;;;;;;;;;;;;;7366331;19;1293;-68
2023/03/08 11:25:27;;;;;;;;;;;;;;;;;;7369215;19;877;-69
2023/03/08 11:27:55;;;;;;;;;;;;;;;;;;7368274;19;870;-68
2023/03/08 11:30:23;;;;;;;;;;;;;;;;;;7369148;19;845;-67
2023/03/08 11:32:52;;;;;;;;;;;;;;;;;;7367086;19;1850;-67
2023/03/08 11:35:22;;;;;;;;;;;;;;;;;;7367531;19;1455;-67
2023/03/08 11:37:50;;;;;;;;;;;;;;;;;;7366839;19;804;-68
2023/03/08 11:40:18;;;;;;;;;;;;;;;;;;7368319;19;826;-69
2023/03/08 11:42:46;;;;;;;;;;;;;;;;;;7366686;19;1274;-68
2023/03/08 11:45:14;;;;;;;;;;;;;;;;;;7368165;19;783;-68
2023/03/08 11:47:43;;;;;;;;;;;;;;;;;;7367000;19;802;-67
2023/03/08 11:50:11;;;;;;;;;;;;;;;;;;7368914;19;836;-68
2023/03/08 11:52:40;;;;;;;;;;;;;;;;;;7365153;19;1892;-68
2023/03/08 11:55:08;;;;;;;;;;;;;;;;;;7368565;19;1011;-68
2023/03/08 11:57:36;;;;;;;;;;;;;;;;;;7368968;19;838;-67
2023/03/08 12:00:08;;;;;;;;;;;;;;;;;;7371516;19;870;-67
2023/03/08 12:02:40;;;;;;;;;;;;;;;;;;7366184;19;1294;-66
2023/03/08 12:05:09;;;;;;;;;;;;;;;;;;7368652;19;1856;-65
2023/03/08 12:07:37;;;;;;;;;;;;;;;;;;7366821;19;1094;-67
2023/03/08 12:10:05;;;;;;;;;;;;;;;;;;7366238;19;928;-67
2023/03/08 12:12:33;;;;;;;;;;;;;;;;;;7366434;19;1854;-67
2023/03/08 12:15:01;;;;;;;;;;;;;;;;;;7368961;19;1845;-68
2023/03/08 12:17:29;;;;;;;;;;;;;;;;;;7367699;19;858;-67
2023/03/08 12:19:58;;;;;;;;;;;;;;;;;;7367123;19;1878;-67
2023/03/08 12:22:26;;;;;;;;;;;;;;;;;;7368602;19;1745;-67
2023/03/08 12:24:54;;;;;;;;;;;;;;;;;;7368925;19;1812;-67
2023/03/08 12:27:22;;;;;;;;;;;;;;;;;;7369141;19;1927;-67
2023/03/08 12:29:50;;;;;;;;;;;;;;;;;;7365511;19;1899;-67
2023/03/08 12:32:18;;;;;;;;;;;;;;;;;;7369296;19;1866;-67
2023/03/08 12:34:47;;;;;;;;;;;;;;;;;;7368796;19;1389;-67
2023/03/08 12:37:15;;;;;;;;;;;;;;;;;;7367991;19;916;-66
2023/03/08 12:39:43;;;;;;;;;;;;;;;;;;7366710;19;826;-67
2023/03/08 12:42:12;;;;;;;;;;;;;;;;;;7368881;19;1682;-68
2023/03/08 12:44:40;;;;;;;;;;;;;;;;;;7367333;19;873;-66
2023/03/08 12:47:08;;;;;;;;;;;;;;;;;;7367307;19;1685;-69
2023/03/08 12:49:36;;;;;;;;;;;;;;;;;;7366684;19;861;-66
2023/03/08 12:52:05;;;;;;;;;;;;;;;;;;7368637;19;1392;-66
2023/03/08 12:54:33;;;;;;;;;;;;;;;;;;7364960;19;941;-66
2023/03/08 12:57:01;;;;;;;;;;;;;;;;;;7370289;19;1743;-66
2023/03/08 12:59:29;;;;;;;;;;;;;;;;;;7368488;19;1960;-67
2023/03/08 13:01:57;;;;;;;;;;;;;;;;;;7369147;19;1623;-65
2023/03/08 13:04:26;;;;;;;;;;;;;;;;;;7366814;19;851;-68
2023/03/08 13:06:54;;;;;;;;;;;;;;;;;;7366001;19;779;-66
2023/03/08 13:09:22;;;;;;;;;;;;;;;;;;7366302;19;865;-66
2023/03/08 13:11:50;;;;;;;;;;;;;;;;;;7369553;19;1871;-66
2023/03/08 13:14:18;;;;;;;;;;;;;;;;;;7362359;19;1844;-66
2023/03/08 13:16:46;;;;;;;;;;;;;;;;;;7365937;19;778;-67
2023/03/08 13:19:15;;;;;;;;;;;;;;;;;;7366362;19;835;-67
2023/03/08 13:21:44;;;;;;;;;;;;;;;;;;7366540;19;1278;-67
2023/03/08 13:24:12;;;;;;;;;;;;;;;;;;7364883;19;808;-65
2023/03/08 13:26:41;;;;;;;;;;;;;;;;;;7366203;19;813;-67
2023/03/08 13:29:09;;;;;;;;;;;;;;;;;;7365393;19;822;-65
2023/03/08 13:31:37;;;;;;;;;;;;;;;;;;7367427;19;1641;-68
2023/03/08 13:34:05;;;;;;;;;;;;;;;;;;7363737;19;1855;-68
2023/03/08 13:36:33;;;;;;;;;;;;;;;;;;7366757;19;840;-68
2023/03/08 13:39:02;;;;;;;;;;;;;;;;;;7365363;19;863;-68
2023/03/08 13:41:31;;;;;;;;;;;;;;;;;;7370898;19;1835;-68
2023/03/08 13:43:59;;;;;;;;;;;;;;;;;;7364722;19;809;-66
2023/03/08 13:46:27;;;;;;;;;;;;;;;;;;7365194;19;852;-66
2023/03/08 13:48:55;;;;;;;;;;;;;;;;;;7367740;19;2119;-68
2023/03/08 13:51:23;;;;;;;;;;;;;;;;;;7369367;19;1858;-68
2023/03/08 13:53:51;;;;;;;;;;;;;;;;;;7366272;19;1854;-67
2023/03/08 13:56:20;;;;;;;;;;;;;;;;;;7374303;19;1894;-68
2023/03/08 13:58:48;;;;;;;;;;;;;;;;;;7372538;19;1829;-67
2023/03/08 14:01:17;;;;;;;;;;;;;;;;;;7374062;19;1758;-68
2023/03/08 14:03:45;;;;;;;;;;;;;;;;;;7368301;19;1912;-67
2023/03/08 14:06:13;;;;;;;;;;;;;;;;;;7371530;19;1882;-68
2023/03/08 14:08:42;;;;;;;;;;;;;;;;;;7373773;19;1865;-68
2023/03/08 14:11:10;;;;;;;;;;;;;;;;;;7372907;19;1868;-68
2023/03/08 14:13:38;;;;;;;;;;;;;;;;;;7365432;19;1906;-68
2023/03/08 14:16:06;;;;;;;;;;;;;;;;;;7367186;19;858;-67
2023/03/08 14:18:34;;;;;;;;;;;;;;;;;;7366564;19;1951;-68
2023/03/08 14:21:02;;;;;;;;;;;;;;;;;;7367812;19;1847;-67
2023/03/08 14:23:30;;;;;;;;;;;;;;;;;;7364384;19;1935;-67
2023/03/08 14:25:58;;;;;;;;;;;;;;;;;;7367965;19;1861;-66
2023/03/08 14:28:27;;;;;;;;;;;;;;;;;;7368739;19;1940;-67
2023/03/08 14:30:55;;;;;;;;;;;;;;;;;;7364760;19;1844;-66
2023/03/08 14:33:27;;;;;;;;;;;;;;;;;;7362568;19;1910;-66
2023/03/08 14:35:56;;;;;;;;;;;;;;;;;;7364957;19;722;-68
2023/03/08 14:38:24;;;;;;;;;;;;;;;;;;7364551;19;1777;-67
2023/03/08 14:40:52;;;;;;;;;;;;;;;;;;7364150;19;833;-66
2023/03/08 14:43:20;;;;;;;;;;;;;;;;;;7365273;19;1821;-67
2023/03/08 14:45:49;;;;;;;;;;;;;;;;;;7364478;19;806;-69
2023/03/08 14:48:17;;;;;;;;;;;;;;;;;;7364722;19;1842;-68
2023/03/08 14:50:45;;;;;;;;;;;;;;;;;;7366867;19;2181;-67
2023/03/08 14:53:13;;;;;;;;;;;;;;;;;;7363155;19;1850;-67
2023/03/08 14:55:41;;;;;;;;;;;;;;;;;;7365392;19;2287;-67
2023/03/08 14:58:10;;;;;;;;;;;;;;;;;;7363140;19;1855;-67
2023/03/08 15:00:38;;;;;;;;;;;;;;;;;;7364537;19;1846;-66
2023/03/08 15:03:06;;;;;;;;;;;;;;;;;;7363047;19;1847;-67
2023/03/08 15:05:36;;;;;;;;;;;;;;;;;;7367520;19;1681;-67
2023/03/08 15:08:04;;;;;;;;;;;;;;;;;;7363745;19;1652;-67
2023/03/08 15:10:32;;;;;;;;;;;;;;;;;;7364414;19;1882;-67
2023/03/08 15:13:01;;;;;;;;;;;;;;;;;;7360981;19;1872;-67
2023/03/08 15:15:29;;;;;;;;;;;;;;;;;;7363561;19;865;-68
2023/03/08 15:17:57;;;;;;;;;;;;;;;;;;7360430;19;1936;-67
2023/03/08 15:20:25;;;;;;;;;;;;;;;;;;7365162;19;1855;-69
2023/03/08 15:22:53;;;;;;;;;;;;;;;;;;7362251;19;1851;-68
2023/03/08 15:25:21;;;;;;;;;;;;;;;;;;7364268;19;1879;-68
2023/03/08 15:27:49;;;;;;;;;;;;;;;;;;7360772;19;1749;-67
2023/03/08 15:30:18;;;;;;;;;;;;;;;;;;7363734;19;1819;-66
2023/03/08 15:32:46;;;;;;;;;;;;;;;;;;7358109;19;2124;-67
2023/03/08 15:35:14;;;;;;;;;;;;;;;;;;7359481;19;1849;-67
2023/03/08 15:37:42;;;;;;;;;;;;;;;;;;7365479;19;1863;-67
2023/03/08 15:40:10;;;;;;;;;;;;;;;;;;7372673;19;1720;-68
2023/03/08 15:42:39;;;;;;;;;;;;;;;;;;7371529;19;1733;-67
2023/03/08 15:45:07;;;;;;;;;;;;;;;;;;7368362;19;799;-66
2023/03/08 15:47:35;;;;;;;;;;;;;;;;;;7367707;19;1835;-67
2023/03/08 15:50:03;;;;;;;;;;;;;;;;;;7368423;19;1828;-68
2023/03/08 15:52:31;;;;;;;;;;;;;;;;;;7371649;19;1813;-67
2023/03/08 15:54:59;;;;;;;;;;;;;;;;;;7366543;19;1834;-67
2023/03/08 15:57:28;;;;;;;;;;;;;;;;;;7368159;19;760;-68
2023/03/08 15:59:56;;;;;;;;;;;;;;;;;;7367413;19;838;-67
2023/03/08 16:02:24;;;;;;;;;;;;;;;;;;7367025;19;1337;-67
2023/03/08 16:04:54;;;;;;;;;;;;;;;;;;7368904;19;776;-67
2023/03/08 16:07:22;;;;;;;;;;;;;;;;;;7368777;19;789;-66
2023/03/08 16:09:50;;;;;;;;;;;;;;;;;;7368566;19;716;-67
2023/03/08 16:12:19;;;;;;;;;;;;;;;;;;7367477;19;1360;-67
2023/03/08 16:14:48;;;;;;;;;;;;;;;;;;7368669;19;1841;-66
2023/03/08 16:17:16;;;;;;;;;;;;;;;;;;7367908;19;809;-65
2023/03/08 16:19:44;;;;;;;;;;;;;;;;;;7365939;19;771;-65
2023/03/08 16:22:12;;;;;;;;;;;;;;;;;;7371170;19;1408;-66
2023/03/08 16:24:40;;;;;;;;;;;;;;;;;;7373168;19;1346;-66
2023/03/08 16:27:08;;;;;;;;;;;;;;;;;;7369260;19;1555;-65
2023/03/08 16:29:37;;;;;;;;;;;;;;;;;;7368541;19;1835;-67
2023/03/08 16:32:05;;;;;;;;;;;;;;;;;;7366334;19;1286;-67
2023/03/08 16:34:33;;;;;;;;;;;;;;;;;;7366211;19;1838;-66
2023/03/08 16:37:01;;;;;;;;;;;;;;;;;;7368129;19;857;-66
2023/03/08 16:39:29;;;;;;;;;;;;;;;;;;7367578;19;793;-65
2023/03/08 16:41:57;;;;;;;;;;;;;;;;;;7367291;19;1226;-65
2023/03/08 16:44:25;;;;;;;;;;;;;;;;;;7367239;19;1853;-65
2023/03/08 16:46:54;;;;;;;;;;;;;;;;;;7368743;19;1866;-66
2023/03/08 16:49:26;;;;;;;;;;;;;;;;;;7366404;19;1107;-65
2023/03/08 16:51:55;;;;;;;;;;;;;;;;;;7366096;19;1247;-65
2023/03/08 16:54:23;;;;;;;;;;;;;;;;;;7365895;19;1899;-67
2023/03/08 16:56:51;;;;;;;;;;;;;;;;;;7366002;19;806;-66
2023/03/08 16:59:19;;;;;;;;;;;;;;;;;;7366362;19;821;-66
2023/03/08 17:01:48;;;;;;;;;;;;;;;;;;7365463;19;1369;-66
2023/03/08 17:04:18;;;;;;;;;;;;;;;;;;7367026;19;1858;-65
2023/03/08 17:06:46;;;;;;;;;;;;;;;;;;7367046;19;837;-65
2023/03/08 17:09:14;;;;;;;;;;;;;;;;;;7364785;19;746;-66
2023/03/08 17:11:44;;;;;;;;;;;;;;;;;;7365198;19;1340;-66
2023/03/08 17:14:12;;;;;;;;;;;;;;;;;;7369985;19;1874;-67
2023/03/08 17:16:42;;;;;;;;;;;;;;;;;;7367635;19;826;-67
2023/03/08 17:19:10;;;;;;;;;;;;;;;;;;7367299;19;822;-67
2023/03/08 17:21:38;;;;;;;;;;;;;;;;;;7366779;19;1274;-66